Time;durP1;ratioP1;P1;durP2;ratioP2;P2;SDS_P1;SDS_P2;PMS_P1;PMS_P2;Temp;Humidity;BMP_temperature;BMP_pressure;BME280_temperature;BME280_humidity;BME280_pressure;Samples;Min_cycle;Max_cycle;Signal;HPM_P1;HPM_P2
2024/02/16 00:01:30;;;;;;;2.55;2.35;;;;;;;;;;5009687;28;20049;-93
2024/02/16 00:03:58;;;;;;;4.18;2.40;;;;;;;;;;5018794;28;20056;-92
2024/02/16 00:06:25;;;;;;;5.47;2.72;;;;;;;;;;5012969;28;20453;-94
2024/02/16 00:08:52;;;;;;;3.83;2.22;;;;;;;;;;5016515;28;20066;-93
2024/02/16 00:11:20;;;;;;;4.53;2.33;;;;;;;;;;5016863;28;20045;-93
2024/02/16 00:13:47;;;;;;;2.00;1.90;;;;;;;;;;5008741;28;20136;-93
2024/02/16 00:16:14;;;;;;;3.22;2.08;;;;;;;;;;5013434;28;20537;-94
2024/02/16 00:18:42;;;;;;;3.63;2.10;;;;;;;;;;5005278;28;20062;-92
2024/02/16 00:21:09;;;;;;;6.18;2.25;;;;;;;;;;5009417;28;20045;-93
2024/02/16 00:23:36;;;;;;;2.58;2.08;;;;;;;;;;5017134;28;20148;-92
2024/02/16 00:26:07;;;;;;;2.47;2.03;;;;;;;;;;5008756;28;20055;-93
2024/02/16 00:28:34;;;;;;;1.95;1.70;;;;;;;;;;5015866;28;20514;-93
2024/02/16 00:31:01;;;;;;;7.03;1.85;;;;;;;;;;5006330;28;20050;-93
2024/02/16 00:33:29;;;;;;;4.63;1.70;;;;;;;;;;5005470;28;20050;-93
2024/02/16 00:35:56;;;;;;;1.83;1.73;;;;;;;;;;5005720;28;20073;-92
2024/02/16 00:38:24;;;;;;;2.00;1.73;;;;;;;;;;5004912;28;20076;-92
2024/02/16 00:40:51;;;;;;;2.95;1.90;;;;;;;;;;5011229;28;20058;-92
2024/02/16 00:43:18;;;;;;;2.10;1.80;;;;;;;;;;5012440;28;20065;-91
2024/02/16 00:45:46;;;;;;;4.13;1.98;;;;;;;;;;5016130;28;20054;-93
2024/02/16 00:48:14;;;;;;;4.13;1.52;;;;;;;;;;5004856;28;20138;-94
2024/02/16 00:50:42;;;;;;;2.78;1.88;;;;;;;;;;5004852;28;20060;-93
2024/02/16 00:53:10;;;;;;;3.38;1.58;;;;;;;;;;5005275;28;20050;-92
2024/02/16 00:55:38;;;;;;;2.35;1.52;;;;;;;;;;5005776;28;20133;-93
2024/02/16 00:58:05;;;;;;;2.20;1.70;;;;;;;;;;5005210;28;20058;-94
2024/02/16 01:00:32;;;;;;;2.78;1.52;;;;;;;;;;5005025;28;20097;-92
2024/02/16 01:03:00;;;;;;;5.30;1.80;;;;;;;;;;5005311;28;20046;-94
2024/02/16 01:05:27;;;;;;;1.40;1.30;;;;;;;;;;5006178;28;20055;-93
2024/02/16 01:07:54;;;;;;;2.22;1.55;;;;;;;;;;5007405;28;20058;-92
2024/02/16 01:10:22;;;;;;;1.92;1.48;;;;;;;;;;5004087;28;20089;-94
2024/02/16 01:12:52;;;;;;;3.90;1.73;;;;;;;;;;5004801;28;20058;-92
2024/02/16 01:15:19;;;;;;;1.73;1.20;;;;;;;;;;5010718;28;20510;-92
2024/02/16 01:17:47;;;;;;;2.13;1.48;;;;;;;;;;5009081;28;20112;-94
2024/02/16 01:20:14;;;;;;;4.43;1.35;;;;;;;;;;5005377;28;20057;-92
2024/02/16 01:22:42;;;;;;;2.13;1.30;;;;;;;;;;5003685;28;20054;-93
2024/02/16 01:25:10;;;;;;;2.45;1.35;;;;;;;;;;5004048;28;20046;-93
2024/02/16 01:27:37;;;;;;;3.85;1.38;;;;;;;;;;5010504;28;20054;-94
2024/02/16 01:30:04;;;;;;;3.38;1.40;;;;;;;;;;5012413;28;20054;-94
2024/02/16 01:32:32;;;;;;;3.28;1.40;;;;;;;;;;5006235;28;20057;-93
2024/02/16 01:34:59;;;;;;;4.50;1.70;;;;;;;;;;5003299;28;20515;-93
2024/02/16 01:37:26;;;;;;;1.55;1.42;;;;;;;;;;5003300;28;20072;-94
2024/02/16 01:39:54;;;;;;;2.88;1.75;;;;;;;;;;5012632;28;20046;-92
2024/02/16 01:42:21;;;;;;;2.58;1.42;;;;;;;;;;5010304;28;20062;-93
2024/02/16 01:44:48;;;;;;;1.35;1.23;;;;;;;;;;5000421;28;20054;-89
2024/02/16 01:47:16;;;;;;;1.65;1.30;;;;;;;;;;5007586;28;20442;-93
2024/02/16 01:49:43;;;;;;;1.67;1.45;;;;;;;;;;5015636;28;20050;-92
2024/02/16 01:52:11;;;;;;;2.53;1.67;;;;;;;;;;5012092;28;20143;-93
2024/02/16 01:54:39;;;;;;;2.03;1.70;;;;;;;;;;5007220;28;20051;-93
2024/02/16 01:57:07;;;;;;;2.28;1.40;;;;;;;;;;5003635;28;20046;-93
2024/02/16 01:59:36;;;;;;;1.92;1.30;;;;;;;;;;5020819;28;20069;-92
2024/02/16 02:02:04;;;;;;;0.93;0.93;;;;;;;;;;5003743;28;20442;-94
2024/02/16 02:04:31;;;;;;;1.65;1.20;;;;;;;;;;5004501;28;20065;-93
2024/02/16 02:06:58;;;;;;;3.72;1.30;;;;;;;;;;5002784;28;20061;-93
2024/02/16 02:09:26;;;;;;;1.02;1.02;;;;;;;;;;5003990;28;20129;-93
2024/02/16 02:11:53;;;;;;;2.60;1.73;;;;;;;;;;5011947;28;20129;-93
2024/02/16 02:14:25;;;;;;;1.35;1.25;;;;;;;;;;5009202;28;20129;-93
2024/02/16 02:16:53;;;;;;;2.40;1.17;;;;;;;;;;5003796;28;20060;-93
2024/02/16 02:19:25;;;;;;;1.48;1.33;;;;;;;;;;5008733;28;20054;-93
2024/02/16 02:21:53;;;;;;;1.67;1.42;;;;;;;;;;5003907;28;20521;-94
2024/02/16 02:24:20;;;;;;;2.90;1.60;;;;;;;;;;5008337;28;20476;-92
2024/02/16 02:26:48;;;;;;;1.50;1.38;;;;;;;;;;5007418;28;20140;-93
2024/02/16 02:29:15;;;;;;;2.17;1.52;;;;;;;;;;5006425;28;20061;-94
2024/02/16 02:31:42;;;;;;;1.92;1.30;;;;;;;;;;4998953;28;20174;-93
2024/02/16 02:34:10;;;;;;;4.22;1.65;;;;;;;;;;5010716;28;20479;-93
2024/02/16 02:36:38;;;;;;;1.77;1.67;;;;;;;;;;5005962;28;20054;-94
2024/02/16 02:39:05;;;;;;;2.03;1.77;;;;;;;;;;5002489;28;20495;-94
2024/02/16 02:41:33;;;;;;;3.60;1.30;;;;;;;;;;5002343;28;20056;-93
2024/02/16 02:44:00;;;;;;;3.72;1.52;;;;;;;;;;5013068;28;20560;-92
2024/02/16 02:46:27;;;;;;;3.00;1.52;;;;;;;;;;5008381;28;20058;-93
2024/02/16 02:48:55;;;;;;;2.47;1.77;;;;;;;;;;5002341;28;20054;-93
2024/02/16 02:51:23;;;;;;;4.03;1.90;;;;;;;;;;5002263;28;20069;-90
2024/02/16 02:53:51;;;;;;;5.38;2.53;;;;;;;;;;5002380;28;20116;-93
2024/02/16 02:56:18;;;;;;;3.60;1.42;;;;;;;;;;5003268;28;20085;-92
2024/02/16 02:58:45;;;;;;;3.10;1.52;;;;;;;;;;5003264;28;20058;-94
2024/02/16 03:01:13;;;;;;;5.28;1.90;;;;;;;;;;5002987;28;20554;-92
2024/02/16 03:03:42;;;;;;;2.97;1.83;;;;;;;;;;5003096;28;20065;-93
2024/02/16 03:06:10;;;;;;;1.80;1.60;;;;;;;;;;5014304;28;20050;-94
2024/02/16 03:08:37;;;;;;;1.63;1.52;;;;;;;;;;5013204;28;20068;-95
2024/02/16 03:11:04;;;;;;;2.00;1.80;;;;;;;;;;5005675;28;20545;-93
2024/02/16 03:13:33;;;;;;;2.45;1.55;;;;;;;;;;5014885;28;20038;-94
2024/02/16 03:16:00;;;;;;;2.05;1.40;;;;;;;;;;5012670;28;20057;-94
2024/02/16 03:18:31;;;;;;;1.73;1.55;;;;;;;;;;5001717;28;20046;-93
2024/02/16 03:20:58;;;;;;;2.58;1.45;;;;;;;;;;5003450;28;20060;-93
2024/02/16 03:23:26;;;;;;;3.80;1.30;;;;;;;;;;5007724;28;20052;-93
2024/02/16 03:25:53;;;;;;;3.10;1.35;;;;;;;;;;5007665;28;20054;-93
2024/02/16 03:28:20;;;;;;;1.40;1.30;;;;;;;;;;5001283;28;20054;-93
2024/02/16 03:30:47;;;;;;;1.92;1.50;;;;;;;;;;5001820;28;20057;-93
2024/02/16 03:33:15;;;;;;;1.30;1.20;;;;;;;;;;5005614;28;20046;-93
2024/02/16 03:35:42;;;;;;;2.15;1.38;;;;;;;;;;5012848;28;20451;-94
2024/02/16 03:38:10;;;;;;;1.50;1.40;;;;;;;;;;5004906;28;20054;-94
2024/02/16 03:40:37;;;;;;;1.92;1.30;;;;;;;;;;5006096;28;20062;-94
2024/02/16 03:43:04;;;;;;;1.67;1.52;;;;;;;;;;5001671;28;20054;-93
2024/02/16 03:45:31;;;;;;;1.52;1.20;;;;;;;;;;5001644;28;20112;-93
2024/02/16 03:47:59;;;;;;;3.72;1.42;;;;;;;;;;4999162;28;20058;-93
2024/02/16 03:50:26;;;;;;;3.17;1.45;;;;;;;;;;5000948;28;20056;-90
2024/02/16 03:52:54;;;;;;;2.90;1.40;;;;;;;;;;5001430;28;20116;-93
2024/02/16 03:55:21;;;;;;;1.40;1.10;;;;;;;;;;5001053;28;20097;-94
2024/02/16 03:57:48;;;;;;;1.58;1.40;;;;;;;;;;5001696;28;20105;-94
2024/02/16 04:00:16;;;;;;;1.25;1.15;;;;;;;;;;5008785;28;20491;-93
2024/02/16 04:02:43;;;;;;;2.95;1.70;;;;;;;;;;5001839;28;20054;-94
2024/02/16 04:05:10;;;;;;;1.83;1.40;;;;;;;;;;4996695;28;20451;-93
2024/02/16 04:07:37;;;;;;;3.17;1.25;;;;;;;;;;5005335;28;20451;-93
2024/02/16 04:10:06;;;;;;;6.13;1.90;;;;;;;;;;5001508;28;20133;-93
2024/02/16 04:12:34;;;;;;;3.58;1.40;;;;;;;;;;5004118;28;20513;-93
2024/02/16 04:15:01;;;;;;;1.00;0.90;;;;;;;;;;5008872;28;20503;-92
2024/02/16 04:17:29;;;;;;;2.38;1.52;;;;;;;;;;5004415;28;20047;-93
2024/02/16 04:19:56;;;;;;;4.32;1.40;;;;;;;;;;5001798;28;20058;-93
2024/02/16 04:22:23;;;;;;;1.55;1.45;;;;;;;;;;5004040;28;20060;-93
2024/02/16 04:24:51;;;;;;;2.58;1.10;;;;;;;;;;5004214;28;20459;-93
2024/02/16 04:27:18;;;;;;;1.55;1.40;;;;;;;;;;5010335;28;20120;-92
2024/02/16 04:29:45;;;;;;;1.50;1.40;;;;;;;;;;5019385;28;20077;-93
2024/02/16 04:32:12;;;;;;;2.75;1.27;;;;;;;;;;5004959;28;20084;-92
2024/02/16 04:34:40;;;;;;;2.13;1.40;;;;;;;;;;5006377;28;20411;-93
2024/02/16 04:37:07;;;;;;;2.58;1.70;;;;;;;;;;5010159;28;20089;-94
2024/02/16 04:39:35;;;;;;;4.43;1.80;;;;;;;;;;5005653;28;20066;-92
2024/02/16 04:42:02;;;;;;;1.75;1.52;;;;;;;;;;5011059;28;20080;-93
2024/02/16 04:44:29;;;;;;;1.70;1.60;;;;;;;;;;5012731;28;20140;-93
2024/02/16 04:46:56;;;;;;;1.85;1.35;;;;;;;;;;5014207;28;20068;-92
2024/02/16 04:49:24;;;;;;;5.47;1.40;;;;;;;;;;5016721;28;20391;-93
2024/02/16 04:51:51;;;;;;;1.42;1.33;;;;;;;;;;5008191;28;20093;-93
2024/02/16 04:54:18;;;;;;;2.20;1.52;;;;;;;;;;5011090;28;20053;-93
2024/02/16 04:56:46;;;;;;;8.07;2.05;;;;;;;;;;5009087;28;20062;-93
2024/02/16 04:59:13;;;;;;;1.52;1.40;;;;;;;;;;5004323;28;20136;-93
2024/02/16 05:01:41;;;;;;;2.00;1.13;;;;;;;;;;5000375;28;20085;-93
2024/02/16 05:04:08;;;;;;;1.65;1.55;;;;;;;;;;5011987;28;20047;-94
2024/02/16 05:06:40;;;;;;;1.70;1.60;;;;;;;;;;5006747;28;20054;-93
2024/02/16 05:09:08;;;;;;;2.38;1.50;;;;;;;;;;5004082;28;20093;-93
2024/02/16 05:11:35;;;;;;;1.75;1.50;;;;;;;;;;5007422;28;20054;-94
2024/02/16 05:14:02;;;;;;;1.95;1.77;;;;;;;;;;5012462;28;20050;-93
2024/02/16 05:16:32;;;;;;;2.97;1.98;;;;;;;;;;5006290;28;20550;-93
2024/02/16 05:18:59;;;;;;;3.60;1.63;;;;;;;;;;5005212;28;20047;-94
2024/02/16 05:21:27;;;;;;;3.30;2.08;;;;;;;;;;5015634;28;20053;-94
2024/02/16 05:23:55;;;;;;;1.98;1.80;;;;;;;;;;5007718;28;20072;-94
2024/02/16 05:26:22;;;;;;;1.98;1.80;;;;;;;;;;5015068;28;20048;-94
2024/02/16 05:28:50;;;;;;;3.15;2.20;;;;;;;;;;5006573;28;20104;-94
2024/02/16 05:31:18;;;;;;;2.70;2.50;;;;;;;;;;5004732;28;20058;-94
2024/02/16 05:33:49;;;;;;;2.63;2.42;;;;;;;;;;5012051;28;20558;-93
2024/02/16 05:36:19;;;;;;;2.65;2.45;;;;;;;;;;5011455;28;20081;-93
2024/02/16 05:38:48;;;;;;;4.40;2.50;;;;;;;;;;5004795;28;20407;-91
2024/02/16 05:41:17;;;;;;;2.60;2.40;;;;;;;;;;5006170;28;20109;-92
2024/02/16 05:43:45;;;;;;;4.38;2.72;;;;;;;;;;5021025;28;20038;-93
2024/02/16 05:46:16;;;;;;;2.88;2.60;;;;;;;;;;5004881;28;20049;-93
2024/02/16 05:48:44;;;;;;;3.20;2.33;;;;;;;;;;5000219;28;20046;-91
2024/02/16 05:51:14;;;;;;;4.90;2.53;;;;;;;;;;5003808;28;20108;-92
2024/02/16 05:53:42;;;;;;;2.65;2.45;;;;;;;;;;5003673;28;20050;-92
2024/02/16 05:56:10;;;;;;;2.67;2.47;;;;;;;;;;5011290;28;20050;-94
2024/02/16 05:58:37;;;;;;;3.70;2.30;;;;;;;;;;5007315;28;20050;-94
2024/02/16 06:01:04;;;;;;;4.05;2.60;;;;;;;;;;5004568;28;20045;-93
2024/02/16 06:03:32;;;;;;;3.88;2.30;;;;;;;;;;5009688;28;20061;-93
2024/02/16 06:05:59;;;;;;;3.95;2.30;;;;;;;;;;5007113;28;20538;-92
2024/02/16 06:08:26;;;;;;;2.60;2.40;;;;;;;;;;5014298;28;20065;-92
2024/02/16 06:10:57;;;;;;;2.08;1.85;;;;;;;;;;5006640;28;20050;-93
2024/02/16 06:13:24;;;;;;;3.13;2.10;;;;;;;;;;5009573;28;20411;-92
2024/02/16 06:15:51;;;;;;;4.88;2.28;;;;;;;;;;5008476;28;20054;-93
2024/02/16 06:18:19;;;;;;;3.10;2.33;;;;;;;;;;5002853;28;20101;-92
2024/02/16 06:20:46;;;;;;;4.97;3.97;;;;;;;;;;5003226;28;20554;-94
2024/02/16 06:23:17;;;;;;;8.18;6.70;;;;;;;;;;5003115;28;20097;-92
2024/02/16 06:25:44;;;;;;;9.13;6.00;;;;;;;;;;5003331;28;20104;-93
2024/02/16 06:28:11;;;;;;;8.75;7.25;;;;;;;;;;5003522;28;20050;-94
2024/02/16 06:30:39;;;;;;;3.33;3.03;;;;;;;;;;5010038;28;20049;-93
2024/02/16 06:33:06;;;;;;;4.53;3.00;;;;;;;;;;5006187;28;20050;-93
2024/02/16 06:35:34;;;;;;;3.67;1.98;;;;;;;;;;5007733;28;20527;-92
2024/02/16 06:38:01;;;;;;;2.10;2.00;;;;;;;;;;5002494;28;20047;-93
2024/02/16 06:40:29;;;;;;;2.47;2.28;;;;;;;;;;5001707;28;20053;-94
2024/02/16 06:42:57;;;;;;;2.75;2.38;;;;;;;;;;5005980;28;20043;-93
2024/02/16 06:45:25;;;;;;;2.38;2.28;;;;;;;;;;5011039;28;20144;-92
2024/02/16 06:47:53;;;;;;;2.83;2.30;;;;;;;;;;5002302;28;20073;-93
2024/02/16 06:50:20;;;;;;;2.53;2.33;;;;;;;;;;5002573;28;20561;-92
2024/02/16 06:52:47;;;;;;;2.45;2.08;;;;;;;;;;5002774;28;20053;-93
2024/02/16 06:55:15;;;;;;;2.85;2.40;;;;;;;;;;5003595;28;20054;-92
2024/02/16 06:57:43;;;;;;;3.70;2.10;;;;;;;;;;5011344;28;20069;-93
2024/02/16 07:00:11;;;;;;;3.75;1.88;;;;;;;;;;5009965;28;20046;-93
2024/02/16 07:02:41;;;;;;;2.60;2.40;;;;;;;;;;5006649;28;20109;-94
2024/02/16 07:05:08;;;;;;;2.53;2.10;;;;;;;;;;5002033;28;20057;-92
2024/02/16 07:07:36;;;;;;;2.38;1.90;;;;;;;;;;5008848;28;20116;-92
2024/02/16 07:10:05;;;;;;;2.90;2.10;;;;;;;;;;5006469;28;20082;-93
2024/02/16 07:12:33;;;;;;;3.22;1.95;;;;;;;;;;5007356;28;20052;-94
2024/02/16 07:15:02;;;;;;;4.38;2.67;;;;;;;;;;5002173;28;20084;-94
2024/02/16 07:17:30;;;;;;;2.70;2.25;;;;;;;;;;5002601;28;20418;-93
2024/02/16 07:19:57;;;;;;;3.92;2.20;;;;;;;;;;5003122;28;20060;-93
2024/02/16 07:22:24;;;;;;;2.75;2.28;;;;;;;;;;5003098;28;20046;-93
2024/02/16 07:24:52;;;;;;;2.00;1.90;;;;;;;;;;5002166;28;20050;-92
2024/02/16 07:27:19;;;;;;;2.60;2.40;;;;;;;;;;5003362;28;20054;-93
2024/02/16 07:29:46;;;;;;;4.75;4.35;;;;;;;;;;5002026;28;20456;-92
2024/02/16 07:32:14;;;;;;;4.75;3.55;;;;;;;;;;5002868;28;20050;-93
2024/02/16 07:34:41;;;;;;;5.30;4.65;;;;;;;;;;5009580;28;20050;-93
2024/02/16 07:37:08;;;;;;;29.33;16.85;;;;;;;;;;5004946;28;20077;-93
2024/02/16 07:39:36;;;;;;;73.43;36.13;;;;;;;;;;5006934;28;20058;-93
2024/02/16 07:42:03;;;;;;;39.03;21.27;;;;;;;;;;5004173;28;20105;-92
2024/02/16 07:44:30;;;;;;;99.65;50.78;;;;;;;;;;5007606;28;20056;-92
2024/02/16 07:46:58;;;;;;;19.05;11.20;;;;;;;;;;5008336;28;20054;-94
2024/02/16 07:49:25;;;;;;;14.30;7.70;;;;;;;;;;5002119;28;20487;-94
2024/02/16 07:51:52;;;;;;;11.65;7.07;;;;;;;;;;5001790;28;20057;-93
2024/02/16 07:54:20;;;;;;;8.85;5.20;;;;;;;;;;5001552;28;20051;-93
2024/02/16 07:56:47;;;;;;;3.22;2.92;;;;;;;;;;5010043;28;20060;-94
2024/02/16 07:59:18;;;;;;;2.78;2.55;;;;;;;;;;5009274;28;20074;-93
2024/02/16 08:01:46;;;;;;;2.70;2.50;;;;;;;;;;5001811;28;20050;-93
2024/02/16 08:04:13;;;;;;;2.65;2.45;;;;;;;;;;5002096;28;20431;-93
2024/02/16 08:06:40;;;;;;;3.15;2.05;;;;;;;;;;5001692;28;20050;-92
2024/02/16 08:09:08;;;;;;;4.65;2.20;;;;;;;;;;5001703;28;20046;-94
2024/02/16 08:11:35;;;;;;;3.83;2.50;;;;;;;;;;5010141;28;20108;-94
2024/02/16 08:14:03;;;;;;;2.25;2.08;;;;;;;;;;5020716;28;20043;-93
2024/02/16 08:16:30;;;;;;;3.33;2.20;;;;;;;;;;5006894;28;20043;-93
2024/02/16 08:18:57;;;;;;;2.60;1.90;;;;;;;;;;5003303;28;20499;-92
2024/02/16 08:21:25;;;;;;;4.13;2.30;;;;;;;;;;5014165;28;20061;-94
2024/02/16 08:23:52;;;;;;;2.75;2.47;;;;;;;;;;5008881;28;20066;-93
2024/02/16 08:26:21;;;;;;;2.50;2.30;;;;;;;;;;5012235;28;20050;-94
2024/02/16 08:28:48;;;;;;;2.65;2.22;;;;;;;;;;5005447;28;20062;-93
2024/02/16 08:31:19;;;;;;;4.15;1.98;;;;;;;;;;5005640;28;20050;-93
2024/02/16 08:33:46;;;;;;;3.90;3.17;;;;;;;;;;5004824;28;20054;-93
2024/02/16 08:36:15;;;;;;;3.60;2.50;;;;;;;;;;5005387;28;20054;-92
2024/02/16 08:38:43;;;;;;;4.35;2.80;;;;;;;;;;5005181;28;20050;-93
2024/02/16 08:41:10;;;;;;;8.75;3.30;;;;;;;;;;5005355;28;20050;-94
2024/02/16 08:43:37;;;;;;;5.13;3.10;;;;;;;;;;5004966;28;20050;-92
2024/02/16 08:46:05;;;;;;;4.95;2.47;;;;;;;;;;5015742;28;20449;-92
2024/02/16 08:48:32;;;;;;;5.50;2.80;;;;;;;;;;5013177;28;20050;-92
2024/02/16 08:50:59;;;;;;;5.22;2.15;;;;;;;;;;5005585;28;20466;-93
2024/02/16 08:53:29;;;;;;;4.93;3.05;;;;;;;;;;5005073;28;20559;-92
2024/02/16 08:55:57;;;;;;;3.13;2.35;;;;;;;;;;5005204;28;20047;-92
2024/02/16 08:58:24;;;;;;;3.33;2.08;;;;;;;;;;5004926;28;20054;-93
2024/02/16 09:00:51;;;;;;;2.75;2.55;;;;;;;;;;5004459;28;20070;-93
2024/02/16 09:03:18;;;;;;;4.28;2.25;;;;;;;;;;5004566;28;20058;-92
2024/02/16 09:05:46;;;;;;;2.97;2.22;;;;;;;;;;5004698;28;20058;-93
2024/02/16 09:08:13;;;;;;;2.60;2.40;;;;;;;;;;5004256;28;20134;-93
2024/02/16 09:10:40;;;;;;;2.40;2.03;;;;;;;;;;5004712;28;20109;-94
2024/02/16 09:13:09;;;;;;;2.45;2.05;;;;;;;;;;5012006;28;20050;-93
2024/02/16 09:15:36;;;;;;;2.05;1.95;;;;;;;;;;5004218;28;20054;-93
2024/02/16 09:18:04;;;;;;;4.25;2.20;;;;;;;;;;5004755;28;20054;-94
2024/02/16 09:20:31;;;;;;;3.78;1.77;;;;;;;;;;5004410;28;20070;-94
2024/02/16 09:23:00;;;;;;;5.55;2.03;;;;;;;;;;5012825;28;20046;-94
2024/02/16 09:25:27;;;;;;;2.85;1.98;;;;;;;;;;5006715;28;20096;-92
2024/02/16 09:27:54;;;;;;;5.03;2.38;;;;;;;;;;5021767;28;20097;-93
2024/02/16 09:30:22;;;;;;;6.00;2.22;;;;;;;;;;5004278;28;20109;-93
2024/02/16 09:32:49;;;;;;;2.83;1.80;;;;;;;;;;5003812;28;20120;-90
2024/02/16 09:35:16;;;;;;;7.03;2.30;;;;;;;;;;5004765;28;20166;-94
2024/02/16 09:37:44;;;;;;;4.13;2.17;;;;;;;;;;5011917;28;20053;-93
2024/02/16 09:40:13;;;;;;;3.05;1.95;;;;;;;;;;5012366;28;20495;-91
2024/02/16 09:42:40;;;;;;;8.52;2.05;;;;;;;;;;5011485;28;20175;-92
2024/02/16 09:45:08;;;;;;;2.97;1.50;;;;;;;;;;5015721;28;20054;-92
2024/02/16 09:47:35;;;;;;;2.17;1.70;;;;;;;;;;5008573;28;20137;-93
2024/02/16 09:50:04;;;;;;;3.13;2.40;;;;;;;;;;5004110;28;20050;-92
2024/02/16 09:52:32;;;;;;;3.72;1.77;;;;;;;;;;5004171;28;20050;-92
2024/02/16 09:54:59;;;;;;;1.75;1.63;;;;;;;;;;5003848;28;20089;-93
2024/02/16 09:57:26;;;;;;;2.00;1.75;;;;;;;;;;5003689;28;20128;-91
2024/02/16 09:59:54;;;;;;;2.10;1.90;;;;;;;;;;5003691;28;20042;-93
2024/02/16 10:02:21;;;;;;;2.20;2.00;;;;;;;;;;5004113;28;20055;-94
2024/02/16 10:04:49;;;;;;;1.83;1.73;;;;;;;;;;5003638;28;20050;-93
2024/02/16 10:07:16;;;;;;;2.58;2.20;;;;;;;;;;5003518;28;20050;-93
2024/02/16 10:09:43;;;;;;;2.10;1.88;;;;;;;;;;5003498;28;20407;-93
2024/02/16 10:12:11;;;;;;;1.60;1.50;;;;;;;;;;5003407;28;20149;-94
2024/02/16 10:14:40;;;;;;;8.85;2.50;;;;;;;;;;5003403;28;20050;-93
2024/02/16 10:17:09;;;;;;;2.08;1.60;;;;;;;;;;5011543;28;20133;-93
2024/02/16 10:19:39;;;;;;;2.60;1.92;;;;;;;;;;5003324;28;20054;-93
2024/02/16 10:22:10;;;;;;;2.40;1.50;;;;;;;;;;5003780;28;20057;-93
2024/02/16 10:24:38;;;;;;;2.63;1.85;;;;;;;;;;5010541;28;20146;-93
2024/02/16 10:27:07;;;;;;;1.70;1.60;;;;;;;;;;5003669;28;20081;-93
2024/02/16 10:29:35;;;;;;;1.80;1.70;;;;;;;;;;5002997;28;20403;-89
2024/02/16 10:32:02;;;;;;;1.50;1.40;;;;;;;;;;5011105;28;20487;-89
2024/02/16 10:34:30;;;;;;;1.92;1.77;;;;;;;;;;5005680;28;20054;-92
2024/02/16 10:36:58;;;;;;;3.30;1.85;;;;;;;;;;5002678;28;20144;-96
2024/02/16 10:39:25;;;;;;;1.95;1.80;;;;;;;;;;5003057;28;20108;-92
2024/02/16 10:41:53;;;;;;;4.57;1.58;;;;;;;;;;5020672;28;20466;-92
2024/02/16 10:44:21;;;;;;;1.98;1.75;;;;;;;;;;5008708;28;20042;-91
2024/02/16 10:46:48;;;;;;;3.03;1.85;;;;;;;;;;5008287;28;20061;-92
2024/02/16 10:49:15;;;;;;;2.83;2.28;;;;;;;;;;5002590;28;20066;-94
2024/02/16 10:51:49;;;;;;;2.40;2.20;;;;;;;;;;5003476;28;20050;-90
2024/02/16 10:54:18;;;;;;;2.70;2.50;;;;;;;;;;5023419;28;20501;-93
2024/02/16 10:56:46;;;;;;;2.40;2.17;;;;;;;;;;5006071;28;20053;-92
2024/02/16 10:59:13;;;;;;;3.25;2.45;;;;;;;;;;5010081;28;20411;-93
2024/02/16 11:01:41;;;;;;;2.97;2.20;;;;;;;;;;5002606;28;20050;-93
2024/02/16 11:04:09;;;;;;;2.75;2.22;;;;;;;;;;5013578;28;20417;-92
2024/02/16 11:06:53;;;;;;;3.97;2.40;;;;;;;;;;5006496;28;20097;-93
2024/02/16 11:09:21;;;;;;;;;;;;;;;;;;5007561;28;20058;-93
2024/02/16 11:11:52;;;;;;;2.22;2.10;;;;;;;;;;5022230;28;19926;-92
2024/02/16 11:14:23;;;;;;;9.40;3.00;;;;;;;;;;5009321;28;20065;-93
2024/02/16 11:16:54;;;;;;;5.00;2.50;;;;;;;;;;5002363;28;20046;-93
2024/02/16 11:19:22;;;;;;;2.60;2.10;;;;;;;;;;5002365;28;20104;-93
2024/02/16 11:21:59;;;;;;;2.42;2.22;;;;;;;;;;5007992;28;20122;-91
2024/02/16 11:24:31;;;;;;;2.05;1.95;;;;;;;;;;5007910;28;20054;-92
2024/02/16 11:26:58;;;;;;;3.13;2.22;;;;;;;;;;5008519;28;20427;-92
2024/02/16 11:29:26;;;;;;;1.90;1.60;;;;;;;;;;5001936;28;20050;-92
2024/02/16 11:31:54;;;;;;;2.15;1.95;;;;;;;;;;5001397;28;20046;-92
2024/02/16 11:34:25;;;;;;;2.63;2.00;;;;;;;;;;5006753;28;20538;-92
2024/02/16 11:36:57;;;;;;;4.88;1.80;;;;;;;;;;5005113;28;20054;-94
2024/02/16 11:39:32;;;;;;;5.60;2.08;;;;;;;;;;5007948;28;20074;-92
2024/02/16 11:42:10;;;;;;;2.60;2.13;;;;;;;;;;5002020;28;20503;-91
2024/02/16 11:44:39;;;;;;;5.90;2.53;;;;;;;;;;5001811;28;20145;-90
2024/02/16 11:47:12;;;;;;;4.75;1.73;;;;;;;;;;5001709;28;20050;-92
2024/02/16 11:49:39;;;;;;;2.75;2.00;;;;;;;;;;5002819;28;20050;-91
2024/02/16 11:52:08;;;;;;;19.67;3.47;;;;;;;;;;5009260;28;20053;-90
2024/02/16 11:54:36;;;;;;;3.42;2.00;;;;;;;;;;5011929;28;20062;-90
2024/02/16 11:57:04;;;;;;;5.30;2.50;;;;;;;;;;5026060;28;20061;-91
2024/02/16 11:59:32;;;;;;;2.53;1.67;;;;;;;;;;5005803;28;20046;-91
2024/02/16 12:01:59;;;;;;;2.88;2.15;;;;;;;;;;5005901;28;20054;-88
2024/02/16 12:04:27;;;;;;;5.75;2.50;;;;;;;;;;5007180;28;20054;-90
2024/02/16 12:06:59;;;;;;;4.40;2.00;;;;;;;;;;5012558;28;20081;-89
2024/02/16 12:09:34;;;;;;;4.45;2.38;;;;;;;;;;5006484;28;20056;-92
2024/02/16 12:12:02;;;;;;;4.53;1.90;;;;;;;;;;5013359;28;20053;-92
2024/02/16 12:14:30;;;;;;;2.63;2.42;;;;;;;;;;5005917;28;20489;-91
2024/02/16 12:16:59;;;;;;;5.70;2.28;;;;;;;;;;5005592;28;20414;-91
2024/02/16 12:19:27;;;;;;;1.83;1.73;;;;;;;;;;4999564;28;20418;-91
2024/02/16 12:21:57;;;;;;;4.57;2.28;;;;;;;;;;5014724;28;20414;-91
2024/02/16 12:24:24;;;;;;;3.67;2.03;;;;;;;;;;5011619;28;20057;-93
2024/02/16 12:26:52;;;;;;;2.25;1.85;;;;;;;;;;5014192;28;20054;-91
2024/02/16 12:29:19;;;;;;;2.80;1.80;;;;;;;;;;5009415;28;20096;-91
2024/02/16 12:31:49;;;;;;;2.83;1.98;;;;;;;;;;5009397;28;20429;-92
2024/02/16 12:34:16;;;;;;;4.00;2.10;;;;;;;;;;5013057;28;20046;-91
2024/02/16 12:36:45;;;;;;;2.08;1.98;;;;;;;;;;5013925;28;20129;-88
2024/02/16 12:39:17;;;;;;;2.05;1.80;;;;;;;;;;5012590;28;20054;-91
2024/02/16 12:41:44;;;;;;;3.58;2.25;;;;;;;;;;5005061;28;20133;-91
2024/02/16 12:44:11;;;;;;;2.60;2.20;;;;;;;;;;5009465;28;20058;-91
2024/02/16 12:46:39;;;;;;;7.03;1.80;;;;;;;;;;5010431;28;20097;-90
2024/02/16 12:49:07;;;;;;;2.58;2.08;;;;;;;;;;5015899;28;20490;-92
2024/02/16 12:51:34;;;;;;;2.67;1.90;;;;;;;;;;5016300;28;20049;-93
2024/02/16 12:54:05;;;;;;;3.47;2.75;;;;;;;;;;5006953;28;20360;-92
2024/02/16 12:56:32;;;;;;;3.40;3.10;;;;;;;;;;5012285;28;20060;-91
2024/02/16 12:59:01;;;;;;;2.90;1.90;;;;;;;;;;5012053;28;20093;-92
2024/02/16 13:01:28;;;;;;;6.68;1.98;;;;;;;;;;5004034;28;20042;-91
2024/02/16 13:03:56;;;;;;;3.90;1.77;;;;;;;;;;5004472;28;20101;-91
2024/02/16 13:06:24;;;;;;;5.95;2.10;;;;;;;;;;5004679;28;20051;-90
2024/02/16 13:08:55;;;;;;;2.70;1.95;;;;;;;;;;5020273;28;20050;-91
2024/02/16 13:11:23;;;;;;;3.80;2.10;;;;;;;;;;5009496;28;20053;-92
2024/02/16 13:13:51;;;;;;;3.92;2.08;;;;;;;;;;5004259;28;20054;-90
2024/02/16 13:16:18;;;;;;;2.50;2.20;;;;;;;;;;4997510;28;20134;-89
2024/02/16 13:18:46;;;;;;;3.90;2.40;;;;;;;;;;5012672;28;20069;-90
2024/02/16 13:21:15;;;;;;;2.08;1.90;;;;;;;;;;5023883;28;20052;-91
2024/02/16 13:23:43;;;;;;;11.73;2.45;;;;;;;;;;5007681;28;20050;-89
2024/02/16 13:26:10;;;;;;;3.72;2.38;;;;;;;;;;5007842;28;20046;-91
2024/02/16 13:28:40;;;;;;;3.28;2.20;;;;;;;;;;5008490;28;20069;-90
2024/02/16 13:31:09;;;;;;;2.63;2.28;;;;;;;;;;5015217;28;20049;-91
2024/02/16 13:33:37;;;;;;;2.63;1.88;;;;;;;;;;5007684;28;20097;-91
2024/02/16 13:36:05;;;;;;;2.60;1.98;;;;;;;;;;5007153;28;20050;-89
2024/02/16 13:38:32;;;;;;;3.03;1.73;;;;;;;;;;5008418;28;20085;-92
2024/02/16 13:41:00;;;;;;;3.67;1.70;;;;;;;;;;5003610;28;20054;-94
2024/02/16 13:43:27;;;;;;;1.75;1.60;;;;;;;;;;5003532;28;20100;-89
2024/02/16 13:45:57;;;;;;;2.75;1.73;;;;;;;;;;5009598;28;20582;-89
2024/02/16 13:48:25;;;;;;;4.05;1.92;;;;;;;;;;5003307;28;20050;-90
2024/02/16 13:50:54;;;;;;;2.25;1.77;;;;;;;;;;5003132;28;20070;-91
2024/02/16 13:53:24;;;;;;;2.88;1.80;;;;;;;;;;5003733;28;20058;-91
2024/02/16 13:55:51;;;;;;;2.67;1.80;;;;;;;;;;5003039;28;20457;-92
2024/02/16 13:58:18;;;;;;;3.33;1.90;;;;;;;;;;5003027;28;20074;-91
2024/02/16 14:00:45;;;;;;;3.75;1.83;;;;;;;;;;5003175;28;20053;-88
2024/02/16 14:03:14;;;;;;;2.80;2.00;;;;;;;;;;4998621;28;20100;-89
2024/02/16 14:05:44;;;;;;;3.70;2.00;;;;;;;;;;5011567;28;20050;-93
2024/02/16 14:08:12;;;;;;;5.97;2.22;;;;;;;;;;5002993;28;20058;-91
2024/02/16 14:10:40;;;;;;;1.77;1.67;;;;;;;;;;5003420;28;20073;-90
2024/02/16 14:13:07;;;;;;;4.43;1.98;;;;;;;;;;5002974;28;20085;-90
2024/02/16 14:15:34;;;;;;;3.75;1.60;;;;;;;;;;5003170;28;20439;-90
2024/02/16 14:18:02;;;;;;;4.28;2.00;;;;;;;;;;5002723;28;20116;-91
2024/02/16 14:20:40;;;;;;;3.78;2.10;;;;;;;;;;5003873;28;20046;-93
2024/02/16 14:23:09;;;;;;;2.65;1.90;;;;;;;;;;5013764;28;20093;-91
2024/02/16 14:25:37;;;;;;;3.95;2.75;;;;;;;;;;5008093;28;20050;-94
2024/02/16 14:28:05;;;;;;;5.88;4.65;;;;;;;;;;5003032;28;20112;-90
2024/02/16 14:30:33;;;;;;;4.47;2.63;;;;;;;;;;5002789;28;20136;-91
2024/02/16 14:33:04;;;;;;;3.42;2.13;;;;;;;;;;5002760;28;20054;-92
2024/02/16 14:35:36;;;;;;;2.88;1.70;;;;;;;;;;5002979;28;20046;-91
2024/02/16 14:38:05;;;;;;;5.93;2.05;;;;;;;;;;5002405;28;20105;-91
2024/02/16 14:40:32;;;;;;;2.05;1.83;;;;;;;;;;5003197;28;20065;-91
2024/02/16 14:43:00;;;;;;;1.90;1.80;;;;;;;;;;5004616;28;20145;-91
2024/02/16 14:45:27;;;;;;;2.08;1.92;;;;;;;;;;5008525;28;20058;-91
2024/02/16 14:47:58;;;;;;;4.57;2.33;;;;;;;;;;5002931;28;20058;-92